x

Pensacola - 115nm Ese Of Pensacola, Fl (42039) Wave Buoy

10:50pm - Fri 18th Apr 2014 All times are CDT. -5 hours from GMT.

  • Sig Wave height 8.2ft
  • Peak Period 7s
  • Average Period 5s
  • Wind
    22mph, 27mph gusts
  • Sea Temp 68°f
  • Air Temp 63°f
  • Sea Pressure 1014.9mb
  • Pensacola - 115nm Ese Of Pensacola, Fl
  • Pensacola - 115nm Ese Of Pensacola, Fl

More Historic Weather Station data

Upgrade to MSW Pro to gain access to the past 30 days of data for over 8000 Wavebouys and Weather Stations around the globe.

Join Pro

Comparision Forecast

View Surf forecast
   
Fri 04/18 10:50pm 8ft 7s 5s 22 27 mph 1014.9mb 68f 63f
9:50pm 8ft 8s 5s 25 29 mph 1014.4mb 68f 62f
8:50pm 8ft 8s 5s 25 29 mph 1013.9mb 69f 63f
7:50pm 7.5ft 7s 5s 22 27 mph 1012.7mb 69f 64f
6:50pm 6ft 8s 5s 25 29 mph 1011.5mb 70f 64f
5:50pm 5ft 6s 5s 22 27 mph 1011.1mb 70f 65f
4:50pm 6ft 7s 5s 9 11 mph 1011mb 69f 70f
3:50pm 6ft 6s 5s 9 11 mph 1011.2mb 68f 70f
2:50pm 6.5ft 7s 5s 16 18 mph 1012mb 68f 70f
1:50pm 6.5ft 7s 5s 18 22 mph 1012.1mb 68f 70f
12:50pm 6.5ft 7s 5s 20 25 mph 1012.8mb 69f 71f
11:50am 7ft 7s 6s 16 18 mph 1013.6mb 69f 71f
10:50am 7ft 7s 6s 18 22 mph 1013.9mb 69f 71f
8:50am 7ft 8s 6s 16 20 mph 1013.9mb 70f 70f
7:50am 8ft 7s 6s 25 31 mph 1013.6mb 70f 69f
6:50am 8.5ft 7s 6s 27 31 mph 1013.4mb 69f 69f
5:50am 7.5ft 7s 5s 25 29 mph 1014.4mb 69f 70f
4:50am 8ft 7s 5s 22 27 mph 1014.6mb 69f 68f
3:50am 7ft 6s 5s 22 27 mph 1015.2mb 69f 68f
2:50am 7ft 7s 5s 22 27 mph 1016.1mb 68f 68f
1:50am 7.5ft 7s 5s 20 27 mph 1017.1mb 68f 67f
12:50am 8.5ft 7s 5s 25 29 mph 1017.7mb 68f 68f
Thu 04/17 11:50pm 8.5ft 7s 6s 27 31 mph 1018.2mb 68f 69f
10:50pm 9ft 7s 5s 27 34 mph 1018.2mb 68f 69f
9:50pm 9ft 8s 6s 29 36 mph 1018.7mb 68f 68f
8:50pm 10ft 8s 6s 29 34 mph 1018.3mb 68f 68f
7:50pm 10ft 8s 6s 31 36 mph 1018mb 68f 67f
6:50pm 9ft 7s 6s 29 34 mph 1018.3mb 68f 67f
5:50pm 9ft 7s 6s 27 31 mph 1018.9mb 68f 67f
4:50pm 8.5ft 7s 6s 25 29 mph 1019.1mb 68f 67f
3:50pm 8ft 8s 5s 27 31 mph 1019.1mb 68f 67f
2:50pm 8ft 7s 6s 25 31 mph 1019.8mb 68f 67f
1:50pm 7.5ft 8s 6s 25 29 mph 1020.8mb 68f 67f
12:50pm 9ft 8s 6s 27 31 mph 1021mb 68f 67f
11:50am 7.5ft 7s 5s 27 31 mph 1021.6mb 69f 66f
10:50am 8.5ft 8s 6s 27 31 mph 1021.9mb 69f 66f
9:50am 7ft 8s 5s 27 31 mph 1022mb 69f 66f
8:50am 8ft 7s 6s 27 31 mph 1021.3mb 70f 66f
7:50am 8ft 7s 6s 25 29 mph 1021.1mb 70f 66f
6:50am 8ft 8s 6s 25 29 mph 1020.8mb 69f 66f
5:50am 7.5ft 7s 5s 25 29 mph 1020mb 69f 66f
4:50am 7ft 7s 5s 25 27 mph 1019.8mb 69f 65f
3:50am 7.5ft 7s 5s 22 27 mph 1020.1mb 68f 66f
2:50am 7ft 7s 5s 25 29 mph 1019.9mb 68f 66f
1:50am 7ft 6s 5s 25 29 mph 1019.9mb 68f 66f
12:50am 7ft 6s 5s 25 29 mph 1020.3mb 68f 66f
Wed 04/16 11:50pm 6ft 6s 5s 25 29 mph 1020.1mb 68f 66f
10:50pm 5ft 6s 5s 22 27 mph 1020.6mb 69f 66f
9:50pm 4.5ft 6s 4s 20 27 mph 1020.8mb 69f 66f
8:50pm 4.5ft 6s 5s 20 22 mph 1020.9mb 69f 65f
7:50pm 5ft 6s 5s 18 25 mph 1020.5mb 69f 64f
6:50pm 4.5ft 6s 5s 18 22 mph 1020mb 69f 63f
5:50pm 4.5ft 5s 5s 18 22 mph 1019.9mb 69f 62f
4:50pm 5ft 6s 5s 18 20 mph 1020mb 69f 61f
3:50pm 4.5ft 7s 5s 18 22 mph 1020.2mb 69f 60f
2:50pm 5ft 5s 5s 18 20 mph 1020.5mb 69f 59f
1:50pm 5ft 7s 5s 16 22 mph 1020.9mb 70f 59f
12:50pm 5ft 7s 5s 16 20 mph 1021.4mb 69f 58f
11:50am 6ft 7s 5s 16 20 mph 1022.1mb 69f 58f
10:50am 6ft 7s 5s 16 20 mph 1022.5mb 69f 57f
9:50am 6.5ft 7s 5s 16 20 mph 1022.6mb 68f 55f
8:50am 7ft 7s 5s 18 22 mph 1021.5mb 68f 54f
7:50am 8ft 7s 6s 20 25 mph 1021mb 68f 54f
6:50am 7ft 7s 5s 18 25 mph 1020.6mb 68f 54f
5:50am 8ft 7s 6s 22 27 mph 1020mb 68f 54f
4:50am 8ft 7s 5s 25 31 mph 1019.5mb 68f 55f
3:50am 8.5ft 7s 6s 27 31 mph 1018.9mb 68f 56f
2:50am 8ft 7s 5s 25 31 mph 1019.4mb 68f 56f
1:50am 8ft 7s 5s 27 31 mph 1019.3mb 68f 56f
12:50am 8ft 7s 5s 27 36 mph 1019.4mb 68f 57f
Tue 04/15 11:50pm 8ft 8s 5s 27 34 mph 1019.2mb 68f 58f
10:50pm 7.5ft 8s 5s 25 31 mph 1018.6mb 68f 59f
9:50pm 7ft 7s 5s 27 34 mph 1017.9mb 68f 59f
8:50pm 7.5ft 8s 5s 27 34 mph 1017.4mb 68f 59f
7:50pm 8ft 7s 5s 27 31 mph 1016.4mb 69f 59f
6:50pm 8.5ft 8s 6s 25 31 mph 1015.5mb 69f 59f
5:50pm 9.5ft 8s 6s 22 29 mph 1015.2mb 69f 58f
4:50pm 9ft 8s 6s 25 29 mph 1014.8mb 69f 58f
3:50pm 10ft 7s 6s 27 34 mph 1014.6mb 69f 58f
2:50pm 10.5ft 8s 6s 27 34 mph 1014.5mb 69f 60f
1:50pm 10ft 7s 6s 27 31 mph 1014.2mb 70f 60f
12:50pm 8ft 7s 5s 29 34 mph 1013.7mb 70f 60f
11:50am 7ft 6s 5s 29 36 mph 1013.1mb 71f 60f
10:50am 5ft 5s 4s 29 34 mph 1012.6mb 72f 62f
9:50am 4ft 6s 4s 27 31 mph 1011.4mb 73f 66f
8:50am 3.5ft 5s 4s 22 27 mph 1010mb 73f 69f
7:50am 4ft 5s 4s 13 18 mph 1009.4mb 73f 71f
6:50am 3.5ft 5s 4s 18 22 mph 1008.1mb 73f 75f
5:50am 4ft 5s 4s 18 20 mph 1007.8mb 73f 74f